createdAt,value
2022-09-11T00:01:32.001Z,4982.55176
2022-09-11T00:16:34.545Z,4692.49219
2022-09-11T00:31:37.111Z,3164.28589
2022-09-11T00:46:39.504Z,1651.66138
2022-09-11T01:01:41.893Z,1307.66516
2022-09-11T01:16:44.256Z,984.04498
2022-09-11T01:31:46.645Z,680.8009
2022-09-11T01:46:49.191Z,406.32309
2022-09-11T02:01:51.607Z,186.98053
2022-09-11T02:16:53.969Z,51.53951
2022-09-11T02:31:56.276Z,7.19156
2022-09-11T02:46:58.609Z,0
2022-09-11T03:02:00.974Z,0
2022-09-11T03:17:03.333Z,0
2022-09-11T03:32:05.598Z,0
2022-09-11T03:47:07.932Z,0
2022-09-11T04:02:10.293Z,0
2022-09-11T04:17:12.679Z,0
2022-09-11T04:32:14.918Z,0
2022-09-11T04:47:17.244Z,0
2022-09-11T05:02:19.647Z,0
2022-09-11T05:17:22.011Z,0
2022-09-11T05:32:24.359Z,0
2022-09-11T05:47:26.863Z,0
2022-09-11T06:02:29.262Z,0
2022-09-11T06:17:31.802Z,0
2022-09-11T06:32:34.087Z,0
2022-09-11T06:47:36.361Z,0
2022-09-11T07:02:38.694Z,0
2022-09-11T07:17:41.043Z,0
2022-09-11T07:32:43.277Z,0
2022-09-11T07:47:45.582Z,0
2022-09-11T08:02:47.884Z,0
2022-09-11T08:17:50.235Z,0
2022-09-11T08:32:52.585Z,0
2022-09-11T08:47:55.041Z,0
2022-09-11T09:02:57.370Z,0
2022-09-11T09:17:59.988Z,0
2022-09-11T09:33:02.512Z,0
2022-09-11T09:48:05.062Z,0
2022-09-11T10:03:07.568Z,0
2022-09-11T10:18:09.902Z,0
2022-09-11T10:33:12.227Z,0
2022-09-11T10:48:14.521Z,0
2022-09-11T11:03:16.857Z,0
2022-09-11T11:18:19.104Z,0
2022-09-11T11:33:21.434Z,0
2022-09-11T11:48:23.789Z,0
2022-09-11T12:03:26.214Z,0
2022-09-11T12:18:28.579Z,0
2022-09-11T12:33:30.880Z,0
2022-09-11T12:48:33.440Z,0
2022-09-11T13:03:35.923Z,4.79437
2022-09-11T13:18:38.255Z,37.15639
2022-09-11T13:33:40.995Z,109.07198
2022-09-11T13:48:43.338Z,227.7327
2022-09-11T14:03:45.653Z,424.30197
2022-09-11T14:18:47.957Z,722.75165
2022-09-11T14:33:50.370Z,1165.03259
2022-09-11T14:48:52.655Z,1793.09534
2022-09-11T15:03:55.291Z,1836.24475
2022-09-11T15:18:57.639Z,2313.28467
2022-09-11T15:33:59.960Z,3033.63916
2022-09-11T15:49:02.586Z,3056.4126
2022-09-11T16:04:05.126Z,3785.15723
2022-09-11T16:19:07.634Z,3734.81616
2022-09-11T16:34:09.979Z,3984.12354
2022-09-11T16:49:12.290Z,4679.30762
2022-09-11T17:04:14.700Z,3795.94458
2022-09-11T17:19:17.222Z,3372.84106
2022-09-11T17:34:19.493Z,2210.20581
2022-09-11T17:49:22.007Z,3455.54395
2022-09-11T18:04:24.281Z,3755.19238
2022-09-11T18:19:26.612Z,3581.39624
2022-09-11T18:34:28.998Z,3722.83032
2022-09-11T18:49:31.276Z,2608.13867
2022-09-11T19:04:33.614Z,5152.75195
2022-09-11T19:19:35.989Z,2712.41626
2022-09-11T19:34:38.892Z,2060.38159
2022-09-11T19:49:41.306Z,1721.17981
2022-09-11T20:04:43.580Z,1958.50122
2022-09-11T20:19:45.901Z,1631.28528
2022-09-11T20:34:48.222Z,3409.99756
2022-09-11T20:49:50.615Z,4292.16211
2022-09-11T21:04:52.960Z,5473.9751
2022-09-11T21:19:57.421Z,5221.07178
2022-09-11T21:35:00.007Z,3177.47046
2022-09-11T21:50:02.607Z,3828.3064
2022-09-11T22:05:04.958Z,3567.01318
2022-09-11T22:20:07.313Z,4489.92969
2022-09-11T22:35:09.524Z,4531.88086
2022-09-11T22:50:11.920Z,4247.81396
2022-09-11T23:05:14.260Z,3690.46826
2022-09-11T23:20:16.484Z,2922.17017
2022-09-11T23:35:18.718Z,2702.82764
2022-09-11T23:50:20.968Z,2237.77344
